Terminal Aerodrome Forecast
Issued by NWS Wilmington, OH

Current Version | Previous Version | Graphics & Text | Print | Product List | Glossary On
Versions: 1 2 3 4 5 6 7 8 9 10 11 12 13 14 15 16 17 18 19 20 21 22 23
000
FTUS41 KILN 201000 AAC
TAFDAY
TAF AMD
KDAY 201015Z 2010/2106 00000KT 1/4SM FG VV001
     FM201300 12005KT P6SM FEW001 SCT045
     FM201800 13006KT P6SM BKN025
     FM210100 VRB03KT P6SM VCSH OVC025=

USA.gov is the U.S. government's official web portal to all federal, state and local government web resources and services.